Time;durP1;ratioP1;P1;durP2;ratioP2;P2;SDS_P1;SDS_P2;PMS_P1;PMS_P2;Temp;Humidity;BMP_temperature;BMP_pressure;BME280_temperature;BME280_humidity;BME280_pressure;Samples;Min_cycle;Max_cycle;Signal;HPM_P1;HPM_P2
2022/12/08 00:01:09;;;;;;;33.60;23.33;;;3.50;99.90;;;;;;5033818;28;20195;-67
2022/12/08 00:03:35;;;;;;;38.00;25.23;;;3.50;99.90;;;;;;5034334;28;20194;-66
2022/12/08 00:11:30;;;;;;;40.83;26.13;;;3.50;99.90;;;;;;5034120;28;20671;-66
2022/12/08 00:13:56;;;;;;;42.17;24.33;;;3.50;99.90;;;;;;5015704;28;20175;-67
2022/12/08 00:16:22;;;;;;;36.83;24.40;;;3.50;99.90;;;;;;5033569;28;20564;-66
2022/12/08 00:18:48;;;;;;;36.73;23.87;;;3.50;99.90;;;;;;5034221;28;20179;-67
2022/12/08 00:21:13;;;;;;;36.87;23.50;;;3.50;99.90;;;;;;5033421;28;20223;-67
2022/12/08 00:23:39;;;;;;;45.57;25.30;;;3.50;99.90;;;;;;5033810;28;20274;-67
2022/12/08 00:26:05;;;;;;;38.47;25.30;;;3.50;99.90;;;;;;5015824;28;20182;-67
2022/12/08 00:28:32;;;;;;;40.07;25.23;;;3.50;99.90;;;;;;5033339;28;20207;-66
2022/12/08 00:30:58;;;;;;;41.70;27.70;;;3.60;99.90;;;;;;5033707;28;20175;-67
2022/12/08 00:33:26;;;;;;;45.70;26.83;;;3.50;99.90;;;;;;5033325;28;20229;-67
2022/12/08 00:35:52;;;;;;;49.20;28.90;;;3.50;99.90;;;;;;5033217;28;20682;-67
2022/12/08 00:38:17;;;;;;;45.77;28.30;;;3.50;99.90;;;;;;5033346;28;20195;-66
2022/12/08 00:40:47;;;;;;;47.27;29.70;;;3.50;99.90;;;;;;5015550;28;20168;-67
2022/12/08 00:43:13;;;;;;;46.33;28.23;;;3.60;99.90;;;;;;5015479;28;20179;-67
2022/12/08 00:45:39;;;;;;;49.20;30.37;;;3.60;99.90;;;;;;5015510;28;20704;-67
2022/12/08 00:48:06;;;;;;;50.23;30.00;;;3.70;99.90;;;;;;5033130;28;20175;-66
2022/12/08 00:50:31;;;;;;;49.77;30.90;;;3.70;99.90;;;;;;5015426;28;20190;-67
2022/12/08 00:52:57;;;;;;;46.00;28.00;;;3.70;99.90;;;;;;5034132;28;20680;-67
2022/12/08 00:55:23;;;;;;;54.80;30.30;;;3.70;99.90;;;;;;5015740;28;20183;-67
2022/12/08 00:57:49;;;;;;;47.20;28.87;;;3.70;99.90;;;;;;5033139;28;20195;-67
2022/12/08 01:00:15;;;;;;;47.77;28.57;;;3.70;99.90;;;;;;5035891;28;20660;-67
2022/12/08 01:02:40;;;;;;;51.93;30.03;;;3.70;99.90;;;;;;5037676;28;20282;-67
2022/12/08 01:05:06;;;;;;;45.90;28.63;;;3.70;99.90;;;;;;5037993;28;20182;-66
2022/12/08 01:07:32;;;;;;;49.20;28.97;;;3.70;99.90;;;;;;5037997;28;20179;-67
2022/12/08 01:09:58;;;;;;;54.30;29.70;;;3.70;99.90;;;;;;5037593;28;20213;-67
2022/12/08 01:12:24;;;;;;;48.60;30.90;;;3.60;99.90;;;;;;5036899;28;20218;-66
2022/12/08 01:14:50;;;;;;;43.73;27.23;;;3.70;99.90;;;;;;5036810;28;20639;-66
2022/12/08 01:17:16;;;;;;;48.67;28.80;;;3.60;99.90;;;;;;5019233;28;20298;-67
2022/12/08 01:19:42;;;;;;;46.50;28.53;;;3.60;99.90;;;;;;5037088;28;20199;-66
2022/12/08 01:22:07;;;;;;;47.47;29.17;;;3.60;99.90;;;;;;5036624;28;20215;-66
2022/12/08 01:24:33;;;;;;;43.97;28.60;;;3.70;99.90;;;;;;5036698;28;20600;-67
2022/12/08 01:26:59;;;;;;;48.90;29.77;;;3.60;99.90;;;;;;5036582;28;20178;-66
2022/12/08 01:29:26;;;;;;;46.23;28.57;;;3.70;99.90;;;;;;5036734;28;20179;-66
2022/12/08 01:31:52;;;;;;;47.80;28.77;;;3.70;99.90;;;;;;5036448;28;20198;-66
2022/12/08 01:34:18;;;;;;;45.97;28.00;;;3.60;99.90;;;;;;5018711;28;20553;-67
2022/12/08 01:36:43;;;;;;;42.17;28.37;;;3.70;99.90;;;;;;5036406;28;20207;-67
2022/12/08 01:39:14;;;;;;;40.57;26.80;;;3.70;99.90;;;;;;5036404;28;20187;-67
2022/12/08 01:41:42;;;;;;;40.97;27.67;;;3.60;99.90;;;;;;5036845;28;20195;-67
2022/12/08 01:44:09;;;;;;;38.10;25.87;;;3.70;99.90;;;;;;5036246;28;20225;-66
2022/12/08 01:46:43;;;;;;;44.70;28.00;;;3.70;99.90;;;;;;5036151;28;20195;-68
2022/12/08 01:49:19;;;;;;;41.17;25.50;;;3.70;99.90;;;;;;5036273;28;20702;-66
2022/12/08 01:52:10;;;;;;;36.60;24.57;;;3.70;99.90;;;;;;5018348;28;20203;-67
2022/12/08 01:54:52;;;;;;;40.50;24.37;;;3.70;99.90;;;;;;5036203;28;20210;-67
2022/12/08 01:57:26;;;;;;;36.10;23.30;;;3.70;99.90;;;;;;5036306;28;20685;-67
2022/12/08 02:00:03;;;;;;;35.53;25.10;;;3.70;99.90;;;;;;5035937;28;20156;-66
2022/12/08 02:02:35;;;;;;;40.57;25.60;;;3.70;99.90;;;;;;5018181;28;20195;-66
2022/12/08 02:05:02;;;;;;;35.67;22.80;;;3.70;99.90;;;;;;5018203;28;20215;-66
2022/12/08 02:07:29;;;;;;;31.53;22.07;;;3.70;99.90;;;;;;5035852;28;20186;-66
2022/12/08 02:09:55;;;;;;;32.13;21.50;;;3.70;99.90;;;;;;5017834;28;20192;-66
2022/12/08 02:12:21;;;;;;;29.40;21.93;;;3.70;99.90;;;;;;5035721;28;20226;-67
2022/12/08 02:14:46;;;;;;;31.80;22.17;;;3.70;99.90;;;;;;5035581;28;20250;-66
2022/12/08 02:17:35;;;;;;;31.43;20.73;;;3.70;99.90;;;;;;5035576;28;20668;-66
2022/12/08 02:20:19;;;;;;;27.03;19.67;;;3.70;99.90;;;;;;5035223;28;20240;-66
2022/12/08 02:22:48;;;;;;;27.00;20.50;;;3.70;99.90;;;;;;5035667;28;20199;-66
2022/12/08 02:26:04;;;;;;;27.77;20.10;;;3.70;99.90;;;;;;5035866;28;20198;-66
2022/12/08 02:29:05;;;;;;;26.43;19.23;;;3.70;99.90;;;;;;4958524;28;20625;-66
2022/12/08 02:31:49;;;;;;;26.63;18.83;;;3.60;99.90;;;;;;5014515;28;20220;-66
2022/12/08 02:34:23;;;;;;;25.20;18.87;;;3.60;99.90;;;;;;5035733;28;20183;-66
2022/12/08 02:37:15;;;;;;;26.47;19.57;;;3.60;99.90;;;;;;5035304;28;20210;-66
2022/12/08 02:39:59;;;;;;;24.33;17.03;;;3.60;99.90;;;;;;5017588;28;20270;-66
2022/12/08 02:42:34;;;;;;;28.17;18.83;;;3.60;99.90;;;;;;5035290;28;20191;-66
2022/12/08 02:45:07;;;;;;;23.87;18.30;;;3.50;99.90;;;;;;5035263;28;20167;-66
2022/12/08 02:47:34;;;;;;;22.67;17.73;;;3.60;99.90;;;;;;5035691;28;20163;-66
2022/12/08 02:50:00;;;;;;;22.03;17.67;;;3.50;99.90;;;;;;5035056;28;20314;-66
2022/12/08 02:52:25;;;;;;;25.23;17.30;;;3.50;99.90;;;;;;5035224;28;20266;-66
2022/12/08 02:54:58;;;;;;;24.03;18.23;;;3.50;99.90;;;;;;5035035;28;20664;-66
2022/12/08 02:57:42;;;;;;;24.47;18.13;;;3.50;99.90;;;;;;5035062;28;20690;-66
2022/12/08 03:00:12;;;;;;;22.60;18.27;;;3.50;99.90;;;;;;5034768;28;20179;-66
2022/12/08 03:02:44;;;;;;;26.47;19.33;;;3.50;99.90;;;;;;5034833;28;20202;-66
2022/12/08 03:05:15;;;;;;;29.70;19.67;;;3.50;99.90;;;;;;5035052;28;20521;-67
2022/12/08 03:07:51;;;;;;;30.63;20.10;;;3.50;99.90;;;;;;5016984;28;20171;-66
2022/12/08 03:10:30;;;;;;;26.93;19.30;;;3.50;99.90;;;;;;5035454;28;20633;-66
2022/12/08 03:13:08;;;;;;;30.47;21.13;;;3.50;99.90;;;;;;5034788;28;20206;-66
2022/12/08 03:15:35;;;;;;;28.07;20.33;;;3.50;99.90;;;;;;5016736;28;20237;-66
2022/12/08 03:18:04;;;;;;;28.77;21.43;;;3.50;99.90;;;;;;5016834;28;20206;-66
2022/12/08 03:20:31;;;;;;;33.13;21.90;;;3.50;99.90;;;;;;5034542;28;20179;-66
2022/12/08 03:23:01;;;;;;;32.63;23.07;;;3.50;99.90;;;;;;5033874;28;20187;-66
2022/12/08 03:25:31;;;;;;;28.67;20.13;;;3.50;99.90;;;;;;5034447;28;20174;-66
2022/12/08 03:27:58;;;;;;;26.80;19.67;;;3.50;99.90;;;;;;5034685;28;20164;-67
2022/12/08 03:30:24;;;;;;;29.87;21.27;;;3.50;99.90;;;;;;5016493;28;20346;-66
2022/12/08 03:33:03;;;;;;;30.47;21.60;;;3.50;99.90;;;;;;5016769;28;20294;-66
2022/12/08 03:35:32;;;;;;;29.07;21.50;;;3.50;99.90;;;;;;5016434;28;20182;-67
2022/12/08 03:38:16;;;;;;;28.80;20.77;;;3.60;99.90;;;;;;5034155;28;20238;-66
2022/12/08 03:40:43;;;;;;;32.40;21.97;;;3.60;99.90;;;;;;5014667;28;20505;-67
2022/12/08 03:43:09;;;;;;;28.83;21.30;;;3.60;99.90;;;;;;4996755;28;20266;-66
2022/12/08 03:45:35;;;;;;;34.20;21.00;;;3.60;99.90;;;;;;5014252;28;20597;-67
2022/12/08 03:48:01;;;;;;;29.40;19.80;;;3.60;99.90;;;;;;5014231;28;20595;-66
2022/12/08 03:50:27;;;;;;;29.47;20.60;;;3.60;99.90;;;;;;5014183;28;20676;-67
2022/12/08 03:52:52;;;;;;;31.07;20.87;;;3.60;99.90;;;;;;5014124;28;20291;-66
2022/12/08 03:55:20;;;;;;;32.03;22.27;;;3.60;99.90;;;;;;5014162;28;20226;-67
2022/12/08 03:57:46;;;;;;;35.07;23.37;;;3.60;99.90;;;;;;4996363;28;20290;-66
2022/12/08 04:00:15;;;;;;;36.83;22.67;;;3.60;99.90;;;;;;5014025;28;20207;-67
2022/12/08 04:02:41;;;;;;;32.83;23.67;;;3.60;99.90;;;;;;4996337;28;20238;-66
2022/12/08 04:05:07;;;;;;;32.90;22.97;;;3.60;99.90;;;;;;5014364;28;20661;-66
2022/12/08 04:07:33;;;;;;;31.87;23.23;;;3.60;99.90;;;;;;5013940;28;20653;-66
2022/12/08 04:09:59;;;;;;;30.60;23.30;;;3.60;99.90;;;;;;5030028;28;20190;-66
2022/12/08 04:12:24;;;;;;;32.90;24.20;;;3.60;99.90;;;;;;5033513;28;20195;-66
2022/12/08 04:14:50;;;;;;;33.40;23.53;;;3.60;99.90;;;;;;5033637;28;20726;-66
2022/12/08 04:17:16;;;;;;;35.30;24.07;;;3.60;99.90;;;;;;5033799;28;20195;-66
2022/12/08 04:19:42;;;;;;;39.20;24.30;;;3.60;99.90;;;;;;5033643;28;20540;-66
2022/12/08 04:22:08;;;;;;;38.63;24.50;;;3.60;99.90;;;;;;5033640;28;20202;-66
2022/12/08 04:24:34;;;;;;;30.43;21.50;;;3.60;99.90;;;;;;5015801;28;20182;-67
2022/12/08 04:27:00;;;;;;;33.67;23.23;;;3.60;99.90;;;;;;5033446;28;20253;-67
2022/12/08 04:29:25;;;;;;;34.63;23.87;;;3.60;99.90;;;;;;5033384;28;20207;-66
2022/12/08 04:31:51;;;;;;;40.37;24.83;;;3.60;99.90;;;;;;5015630;28;20195;-67
2022/12/08 04:34:17;;;;;;;34.63;23.73;;;3.60;99.90;;;;;;5032414;28;20219;-66
2022/12/08 04:36:42;;;;;;;34.67;23.17;;;3.60;99.90;;;;;;5033695;28;20217;-67
2022/12/08 04:39:08;;;;;;;35.63;22.70;;;3.60;99.90;;;;;;5033356;28;20183;-66
2022/12/08 04:41:34;;;;;;;34.97;24.53;;;3.50;99.90;;;;;;5033266;28;20605;-67
2022/12/08 04:44:00;;;;;;;36.70;24.60;;;3.50;99.90;;;;;;5033346;28;20544;-66
2022/12/08 04:46:25;;;;;;;33.60;24.03;;;3.50;99.90;;;;;;5015680;28;20546;-68
2022/12/08 04:48:51;;;;;;;35.47;23.33;;;3.50;99.90;;;;;;5033690;28;20175;-67
2022/12/08 04:51:18;;;;;;;38.03;24.80;;;3.50;99.90;;;;;;5033171;28;20571;-67
2022/12/08 04:53:45;;;;;;;38.27;24.53;;;3.50;99.90;;;;;;5033427;28;20643;-67
2022/12/08 04:56:18;;;;;;;39.03;24.77;;;3.50;99.90;;;;;;5033062;28;20201;-67
2022/12/08 04:58:44;;;;;;;40.97;25.30;;;3.50;99.90;;;;;;5032929;28;20179;-67
2022/12/08 05:01:10;;;;;;;43.70;23.90;;;3.50;99.90;;;;;;5032960;28;20690;-67
2022/12/08 05:03:36;;;;;;;39.07;23.87;;;3.50;99.90;;;;;;5033039;28;20175;-67
2022/12/08 05:06:02;;;;;;;39.60;26.17;;;3.50;99.90;;;;;;5032992;28;20699;-67
2022/12/08 05:08:28;;;;;;;40.90;25.47;;;3.50;99.90;;;;;;5033035;28;20191;-67
2022/12/08 05:11:01;;;;;;;36.17;22.77;;;3.40;99.90;;;;;;5032879;28;20236;-67
2022/12/08 05:13:27;;;;;;;34.37;24.90;;;3.40;99.90;;;;;;5033505;28;20171;-67
2022/12/08 05:15:52;;;;;;;42.73;25.70;;;3.40;99.90;;;;;;5032794;28;20598;-67
2022/12/08 05:18:18;;;;;;;35.83;22.47;;;3.50;99.90;;;;;;5032874;28;20206;-68
2022/12/08 05:20:44;;;;;;;37.80;22.53;;;3.40;99.90;;;;;;5032803;28;20237;-67
2022/12/08 05:23:09;;;;;;;36.90;21.40;;;3.40;99.90;;;;;;5032934;28;20640;-67
2022/12/08 05:25:35;;;;;;;36.07;22.30;;;3.40;99.90;;;;;;5015168;28;20218;-66
2022/12/08 05:28:01;;;;;;;39.70;23.03;;;3.40;99.90;;;;;;5032927;28;20249;-67
2022/12/08 05:30:28;;;;;;;34.23;23.60;;;3.30;99.90;;;;;;5032793;28;20179;-67
2022/12/08 05:32:54;;;;;;;35.83;21.53;;;3.30;99.90;;;;;;5032748;28;20265;-67
2022/12/08 05:35:19;;;;;;;35.13;21.43;;;3.30;99.90;;;;;;5032751;28;20652;-67
2022/12/08 05:37:45;;;;;;;30.47;19.53;;;3.30;99.90;;;;;;5049567;28;20263;-67
2022/12/08 05:40:11;;;;;;;32.27;21.47;;;3.30;99.90;;;;;;5032872;28;20222;-67
2022/12/08 05:42:36;;;;;;;30.57;20.47;;;3.30;99.90;;;;;;5067615;28;20213;-67
2022/12/08 05:45:03;;;;;;;31.43;20.10;;;3.30;99.90;;;;;;5072254;28;20186;-67
2022/12/08 05:47:28;;;;;;;27.43;20.40;;;3.20;99.90;;;;;;5091493;28;20191;-67
2022/12/08 05:49:54;;;;;;;33.47;21.27;;;3.20;99.90;;;;;;5050634;28;20272;-67
2022/12/08 05:52:20;;;;;;;31.03;18.83;;;3.20;99.90;;;;;;5071210;28;20288;-67
2022/12/08 05:54:46;;;;;;;29.17;19.00;;;3.20;99.90;;;;;;5090027;28;20535;-68
2022/12/08 05:57:11;;;;;;;27.27;18.75;;;3.20;99.90;;;;;;4954007;28;1318141;-67
2022/12/08 05:59:38;;;;;;;25.73;18.07;;;3.20;99.90;;;;;;4676897;29;20214;-67
2022/12/08 06:02:03;;;;;;;30.17;17.67;;;3.10;99.90;;;;;;4470995;31;20313;-67
2022/12/08 06:04:29;;;;;;;31.23;19.73;;;3.20;99.90;;;;;;4426113;32;20270;-66
2022/12/08 06:06:55;;;;;;;31.70;18.87;;;3.10;99.90;;;;;;4425658;32;20671;-67
2022/12/08 06:09:20;;;;;;;29.53;19.47;;;3.10;99.90;;;;;;4425717;32;20209;-67
2022/12/08 06:11:46;;;;;;;30.07;19.57;;;3.10;99.90;;;;;;4425641;32;20225;-67
2022/12/08 06:14:12;;;;;;;27.33;17.83;;;3.10;99.90;;;;;;4425533;32;20252;-67
2022/12/08 06:16:38;;;;;;;31.70;20.00;;;3.10;99.90;;;;;;4425602;32;20288;-67
2022/12/08 06:19:03;;;;;;;29.23;19.00;;;3.10;99.90;;;;;;4425777;32;20191;-66
2022/12/08 06:21:29;;;;;;;32.53;21.67;;;3.10;99.90;;;;;;4425698;32;20559;-67
2022/12/08 06:23:55;;;;;;;26.73;18.93;;;3.00;99.90;;;;;;4425437;32;20222;-66
2022/12/08 06:26:21;;;;;;;30.80;20.53;;;3.00;99.90;;;;;;4425341;32;20217;-67
2022/12/08 06:28:48;;;;;;;30.53;18.27;;;3.00;99.90;;;;;;4425201;32;20619;-68
2022/12/08 06:31:25;;;;;;;26.70;18.53;;;3.10;99.90;;;;;;4425277;32;20593;-77
2022/12/08 06:33:51;;;;;;;27.80;17.77;;;3.10;99.90;;;;;;4425497;32;20187;-65
2022/12/08 06:36:20;;;;;;;29.90;19.23;;;3.10;99.90;;;;;;4425750;32;20203;-65
2022/12/08 06:38:46;;;;;;;27.47;17.00;;;3.10;99.90;;;;;;4425259;32;20210;-65
2022/12/08 06:41:12;;;;;;;23.10;16.60;;;3.20;99.90;;;;;;4425453;32;20682;-66
2022/12/08 06:43:38;;;;;;;23.10;16.60;;;3.20;99.90;;;;;;4449879;32;20636;-66
2022/12/08 06:46:07;;;;;;;25.40;17.70;;;3.10;99.90;;;;;;4425160;32;20203;-67
2022/12/08 06:48:33;;;;;;;24.83;17.53;;;3.10;99.90;;;;;;4425360;32;20187;-67
2022/12/08 06:51:11;;;;;;;26.03;17.17;;;3.10;99.90;;;;;;4425030;32;20202;-67
2022/12/08 06:53:37;;;;;;;27.83;18.73;;;3.10;99.90;;;;;;4425147;32;20178;-67
2022/12/08 06:56:04;;;;;;;29.20;18.07;;;3.10;99.90;;;;;;4419662;32;20234;-67
2022/12/08 06:58:30;;;;;;;30.30;19.70;;;3.10;99.90;;;;;;4503608;30;1179909;-67
2022/12/08 07:00:56;;;;;;;31.00;19.73;;;3.10;99.90;;;;;;4701869;30;20205;-67
2022/12/08 07:03:22;;;;;;;27.90;18.63;;;3.10;99.90;;;;;;4765063;30;20593;-67
2022/12/08 07:05:48;;;;;;;31.47;19.43;;;3.10;99.90;;;;;;4785867;29;20211;-68
2022/12/08 07:08:13;;;;;;;25.77;18.87;;;3.10;99.90;;;;;;4636858;30;20269;-67
2022/12/08 07:10:39;;;;;;;34.77;19.30;;;3.10;99.90;;;;;;4610869;30;20257;-67
2022/12/08 07:13:05;;;;;;;27.43;18.80;;;3.10;99.90;;;;;;4584222;31;20266;-67
2022/12/08 07:15:31;;;;;;;30.10;19.80;;;3.10;99.90;;;;;;4583720;31;20192;-67
2022/12/08 07:17:56;;;;;;;32.80;20.30;;;3.10;99.90;;;;;;4583649;31;20623;-67
2022/12/08 07:20:22;;;;;;;30.77;19.87;;;3.10;99.90;;;;;;4583330;31;20199;-66
2022/12/08 07:22:52;;;;;;;28.43;19.07;;;3.10;99.90;;;;;;4583214;31;20275;-67
2022/12/08 07:25:18;;;;;;;29.37;19.03;;;3.10;99.90;;;;;;4583277;31;20180;-66
2022/12/08 07:27:44;;;;;;;27.50;17.73;;;3.10;99.90;;;;;;4583456;31;20207;-67
2022/12/08 07:30:11;;;;;;;27.70;17.07;;;3.10;99.90;;;;;;4583151;31;20761;-67
2022/12/08 07:32:39;;;;;;;25.77;16.47;;;3.00;99.90;;;;;;4583014;31;20299;-66
2022/12/08 07:35:06;;;;;;;27.00;18.60;;;3.00;99.90;;;;;;4609557;31;20196;-67
2022/12/08 07:37:33;;;;;;;30.10;18.93;;;3.00;99.90;;;;;;4582969;31;20349;-67
2022/12/08 07:39:59;;;;;;;27.83;17.30;;;3.00;99.90;;;;;;4609343;31;20200;-67
2022/12/08 07:42:25;;;;;;;27.53;19.70;;;3.00;99.90;;;;;;4609354;31;20631;-67
2022/12/08 07:44:51;;;;;;;30.20;19.87;;;3.00;99.90;;;;;;4582828;31;20188;-67
2022/12/08 07:47:17;;;;;;;30.63;19.60;;;3.00;99.90;;;;;;4583112;31;20248;-67
2022/12/08 07:49:42;;;;;;;32.07;19.67;;;3.00;99.90;;;;;;4582812;31;20267;-66
2022/12/08 07:52:08;;;;;;;34.00;21.00;;;3.00;99.90;;;;;;4582760;31;20302;-66
2022/12/08 07:54:34;;;;;;;26.20;19.17;;;3.00;99.90;;;;;;4583035;31;20206;-66
2022/12/08 07:57:02;;;;;;;30.53;20.33;;;3.00;99.90;;;;;;4519578;31;1177988;-70
2022/12/08 07:59:27;;;;;;;28.67;19.73;;;3.00;99.90;;;;;;4530174;31;20694;-69
2022/12/08 08:01:53;;;;;;;29.07;18.67;;;3.00;99.90;;;;;;4518068;31;20287;-66
2022/12/08 08:04:19;;;;;;;26.43;17.70;;;3.00;99.90;;;;;;4517938;31;20234;-66
2022/12/08 08:06:44;;;;;;;26.87;18.13;;;3.00;99.90;;;;;;4600297;30;20580;-66
2022/12/08 08:09:10;;;;;;;29.03;18.87;;;3.00;99.90;;;;;;4650257;30;20221;-66
2022/12/08 08:11:36;;;;;;;29.23;19.00;;;2.90;99.90;;;;;;4661005;30;20279;-66
2022/12/08 08:14:02;;;;;;;28.70;17.87;;;2.90;99.90;;;;;;4683134;30;20286;-67
2022/12/08 08:16:28;;;;;;;31.57;19.30;;;2.90;99.90;;;;;;4683605;30;20673;-67
2022/12/08 08:18:54;;;;;;;24.67;17.30;;;2.90;99.90;;;;;;4683269;30;20227;-66
2022/12/08 08:21:20;;;;;;;26.83;17.47;;;2.90;99.90;;;;;;4683092;30;20215;-67
2022/12/08 08:23:46;;;;;;;25.47;16.87;;;2.90;99.90;;;;;;4683299;30;20192;-66
2022/12/08 08:26:12;;;;;;;26.20;17.53;;;2.90;99.90;;;;;;4683403;30;20194;-66
2022/12/08 08:28:37;;;;;;;23.80;17.17;;;2.90;99.90;;;;;;4683053;30;20218;-66
2022/12/08 08:31:04;;;;;;;25.37;18.17;;;2.90;99.90;;;;;;4682950;30;20219;-66
2022/12/08 08:33:30;;;;;;;30.30;19.70;;;2.90;99.90;;;;;;4683078;30;20191;-67
2022/12/08 08:35:56;;;;;;;30.93;20.60;;;2.90;99.90;;;;;;4683091;30;20192;-67
2022/12/08 08:38:21;;;;;;;31.63;19.80;;;2.90;99.90;;;;;;4683168;30;20227;-67
2022/12/08 08:40:47;;;;;;;33.23;19.77;;;2.90;99.90;;;;;;4682952;30;20188;-67
2022/12/08 08:43:27;;;;;;;37.73;22.33;;;2.90;99.90;;;;;;4683041;30;20276;-67
2022/12/08 08:45:58;;;;;;;37.43;22.00;;;2.90;99.90;;;;;;4682896;30;20642;-66
2022/12/08 08:48:25;;;;;;;37.67;22.77;;;2.90;99.90;;;;;;4683001;30;20184;-66
2022/12/08 08:50:51;;;;;;;37.67;23.03;;;2.90;99.90;;;;;;4682904;30;20191;-67
2022/12/08 08:53:16;;;;;;;34.33;22.50;;;2.90;99.90;;;;;;4682949;30;20728;-66
2022/12/08 08:55:42;;;;;;;38.97;23.97;;;2.90;99.90;;;;;;4681259;30;20196;-67
2022/12/08 08:58:08;;;;;;;39.27;23.87;;;2.90;99.90;;;;;;4703809;30;20228;-69
2022/12/08 09:00:34;;;;;;;35.90;23.33;;;2.90;99.90;;;;;;4715832;30;20210;-66
2022/12/08 09:02:59;;;;;;;33.03;22.20;;;2.90;99.90;;;;;;4717478;30;20672;-66
2022/12/08 09:05:25;;;;;;;36.27;23.47;;;2.80;99.90;;;;;;4721374;30;20194;-66
2022/12/08 09:07:51;;;;;;;39.07;23.23;;;2.80;99.90;;;;;;4781076;30;20216;-67
2022/12/08 09:10:16;;;;;;;35.93;23.30;;;2.80;99.90;;;;;;4802757;29;20619;-66
2022/12/08 09:12:42;;;;;;;39.33;25.17;;;2.80;99.90;;;;;;4805882;29;20783;-66
2022/12/08 09:15:08;;;;;;;41.20;23.60;;;2.90;99.90;;;;;;4805928;29;20684;-66
2022/12/08 09:17:34;;;;;;;36.97;23.17;;;2.80;99.90;;;;;;4806076;29;20570;-66
2022/12/08 09:20:00;;;;;;;35.47;22.13;;;2.90;99.90;;;;;;4806807;29;20179;-66
2022/12/08 09:22:26;;;;;;;35.40;21.73;;;2.90;99.90;;;;;;4809296;29;20213;-66
2022/12/08 09:24:52;;;;;;;35.63;21.37;;;2.80;99.90;;;;;;4809921;29;20188;-67
2022/12/08 09:27:18;;;;;;;33.30;21.80;;;2.80;99.90;;;;;;4809544;29;20191;-68
2022/12/08 09:29:43;;;;;;;32.10;21.20;;;2.80;99.90;;;;;;4807960;29;20187;-67
2022/12/08 09:32:09;;;;;;;35.33;22.30;;;2.80;99.90;;;;;;4807914;29;20211;-66
2022/12/08 09:34:35;;;;;;;32.47;20.87;;;2.80;99.90;;;;;;4809389;29;20238;-67
2022/12/08 09:37:01;;;;;;;32.43;20.47;;;2.80;99.90;;;;;;4809321;29;20643;-66
2022/12/08 09:39:27;;;;;;;31.60;19.97;;;2.80;99.90;;;;;;4819645;29;20229;-66
2022/12/08 09:42:02;;;;;;;33.27;20.03;;;2.80;99.90;;;;;;4827023;29;20202;-67
2022/12/08 09:44:51;;;;;;;31.17;19.50;;;2.80;99.90;;;;;;4825686;29;20279;-67
2022/12/08 09:47:36;;;;;;;31.27;20.10;;;2.80;99.90;;;;;;4825424;29;20202;-67
2022/12/08 09:50:29;;;;;;;28.33;19.00;;;2.80;99.90;;;;;;4827038;29;20185;-66
2022/12/08 09:53:10;;;;;;;30.40;20.00;;;2.80;99.90;;;;;;4825846;29;20267;-69
2022/12/08 09:55:59;;;;;;;31.70;19.40;;;2.70;99.90;;;;;;4826880;29;20551;-68
2022/12/08 09:58:31;;;;;;;27.47;19.17;;;2.80;99.90;;;;;;4851526;29;20240;-68
2022/12/08 10:00:57;;;;;;;29.20;20.10;;;2.80;99.90;;;;;;4881973;29;20635;-68
2022/12/08 10:03:27;;;;;;;26.93;18.60;;;2.70;99.90;;;;;;4882188;29;20211;-68
2022/12/08 10:06:01;;;;;;;26.93;18.40;;;2.80;99.90;;;;;;4893336;29;20195;-68
2022/12/08 10:08:39;;;;;;;29.00;19.87;;;2.80;99.90;;;;;;4969885;28;20205;-68
2022/12/08 10:11:13;;;;;;;30.37;19.93;;;2.70;99.90;;;;;;4958047;28;20237;-68
2022/12/08 10:14:07;;;;;;;28.13;19.73;;;2.80;99.90;;;;;;4972620;28;20197;-68
2022/12/08 10:16:38;;;;;;;29.47;20.30;;;2.80;99.90;;;;;;4957850;29;20678;-68
2022/12/08 10:19:20;;;;;;;26.93;19.60;;;2.70;99.90;;;;;;4957886;28;20233;-68
2022/12/08 10:21:47;;;;;;;29.30;19.60;;;2.80;99.90;;;;;;4972305;28;20206;-68
2022/12/08 10:24:22;;;;;;;30.00;20.03;;;2.70;99.90;;;;;;4972365;28;20186;-68
2022/12/08 10:26:48;;;;;;;34.10;21.67;;;2.70;99.90;;;;;;4957716;29;20177;-68
2022/12/08 10:29:14;;;;;;;30.53;19.50;;;2.70;99.90;;;;;;4957557;29;20186;-68
2022/12/08 10:31:40;;;;;;;26.07;19.07;;;2.70;99.90;;;;;;4957437;28;20202;-68
2022/12/08 10:34:24;;;;;;;30.03;19.63;;;2.70;99.90;;;;;;4972118;28;20599;-68
2022/12/08 10:36:58;;;;;;;30.70;20.80;;;2.70;99.90;;;;;;4972034;28;20576;-68
2022/12/08 10:39:38;;;;;;;32.57;19.53;;;2.70;99.90;;;;;;4957626;28;20569;-68
2022/12/08 10:42:13;;;;;;;26.37;18.70;;;2.70;99.90;;;;;;4957343;28;20215;-68
2022/12/08 10:44:57;;;;;;;27.27;18.97;;;2.70;99.90;;;;;;4955686;29;20177;-68
2022/12/08 10:47:27;;;;;;;29.17;20.00;;;2.60;99.90;;;;;;4957234;29;20209;-68
2022/12/08 10:50:19;;;;;;;29.27;18.83;;;2.70;99.90;;;;;;4957028;28;20328;-68
2022/12/08 10:52:57;;;;;;;25.40;17.67;;;2.60;99.90;;;;;;4957213;28;20576;-68
2022/12/08 10:55:23;;;;;;;25.37;18.33;;;2.60;99.90;;;;;;4957170;29;20611;-68
2022/12/08 10:57:49;;;;;;;27.13;18.43;;;2.70;99.90;;;;;;4971048;28;20791;-67
2022/12/08 11:00:17;;;;;;;26.63;18.00;;;2.70;99.90;;;;;;4992190;28;20191;-67
2022/12/08 11:03:01;;;;;;;28.50;19.43;;;2.70;99.90;;;;;;4994090;28;20204;-68
2022/12/08 11:05:34;;;;;;;24.37;18.13;;;2.70;99.90;;;;;;4993648;28;20161;-68
2022/12/08 11:08:01;;;;;;;25.20;18.80;;;2.60;99.90;;;;;;4977695;28;20197;-68
2022/12/08 11:10:34;;;;;;;26.63;19.47;;;2.60;99.90;;;;;;4975835;28;20201;-68
2022/12/08 11:13:05;;;;;;;27.07;19.27;;;2.60;99.90;;;;;;4975644;28;20200;-68
2022/12/08 11:15:38;;;;;;;24.90;18.27;;;2.60;99.90;;;;;;4975564;28;20197;-68
2022/12/08 11:18:41;;;;;;;26.10;18.53;;;2.60;99.90;;;;;;4975684;28;20208;-68
2022/12/08 11:21:16;;;;;;;27.60;20.80;;;2.60;99.90;;;;;;4935208;29;20286;-68
2022/12/08 11:23:46;;;;;;;31.67;21.47;;;2.70;99.90;;;;;;4970025;28;20239;-68
2022/12/08 11:26:34;;;;;;;31.90;19.80;;;2.60;99.90;;;;;;4975957;28;20169;-68
2022/12/08 11:29:00;;;;;;;32.10;21.23;;;2.60;99.90;;;;;;4975922;28;20201;-68
2022/12/08 11:31:43;;;;;;;38.50;22.87;;;2.70;99.90;;;;;;4975342;28;20232;-68
2022/12/08 11:34:22;;;;;;;35.73;22.63;;;2.60;99.90;;;;;;4976195;28;20529;-68
2022/12/08 11:36:50;;;;;;;38.37;24.30;;;2.60;99.90;;;;;;4976087;28;20542;-68
2022/12/08 11:39:16;;;;;;;33.50;23.13;;;2.70;99.90;;;;;;4975270;28;20661;-68
2022/12/08 11:41:44;;;;;;;33.37;23.47;;;2.70;99.90;;;;;;4975161;28;20272;-68
2022/12/08 11:44:34;;;;;;;34.13;23.37;;;2.60;99.90;;;;;;4973676;28;20192;-68
2022/12/08 11:47:07;;;;;;;39.90;23.97;;;2.70;99.90;;;;;;4975752;28;20195;-68
2022/12/08 11:49:39;;;;;;;40.47;24.40;;;2.60;99.90;;;;;;4975165;28;20237;-68
2022/12/08 11:52:23;;;;;;;40.43;24.70;;;2.50;99.90;;;;;;4975122;28;20197;-68
2022/12/08 11:55:51;;;;;;;39.87;25.07;;;2.60;99.90;;;;;;4975710;28;20172;-68
2022/12/08 11:58:38;;;;;;;33.67;24.30;;;2.60;99.90;;;;;;4980893;28;20266;-69
2022/12/08 12:01:04;;;;;;;39.37;24.57;;;2.60;99.90;;;;;;5013913;28;20267;-68
2022/12/08 12:03:36;;;;;;;41.03;25.17;;;2.60;99.90;;;;;;5014307;28;20608;-68
2022/12/08 12:09:28;;;;;;;36.97;24.03;;;2.60;99.90;;;;;;5119438;27;20596;-67
2022/12/08 12:12:15;;;;;;;38.27;24.33;;;2.60;99.90;;;;;;5131932;28;20263;-67
2022/12/08 12:15:05;;;;;;;42.60;25.57;;;2.50;99.90;;;;;;5132241;28;20578;-67
2022/12/08 12:18:01;;;;;;;39.20;24.37;;;2.50;99.90;;;;;;5130544;28;20221;-67
2022/12/08 12:20:52;;;;;;;40.03;25.37;;;2.50;99.90;;;;;;5131876;27;20164;-67
2022/12/08 12:23:41;;;;;;;42.03;25.57;;;2.50;99.90;;;;;;5131907;28;20198;-67
2022/12/08 12:26:17;;;;;;;43.00;26.20;;;2.40;99.90;;;;;;5130331;28;20168;-67
2022/12/08 12:29:16;;;;;;;42.33;26.40;;;2.40;99.90;;;;;;5131545;28;20312;-67
2022/12/08 12:31:48;;;;;;;44.03;25.80;;;2.40;99.90;;;;;;5130011;28;20196;-67
2022/12/08 12:34:28;;;;;;;42.53;27.10;;;2.30;99.90;;;;;;5129918;28;20175;-68
2022/12/08 12:36:53;;;;;;;43.60;27.37;;;2.40;99.90;;;;;;5130135;28;20164;-68
2022/12/08 12:39:23;;;;;;;41.87;27.27;;;2.40;99.90;;;;;;5120376;28;20290;-67
2022/12/08 12:41:55;;;;;;;47.37;28.10;;;2.40;99.90;;;;;;5111134;28;20184;-68
2022/12/08 12:44:26;;;;;;;46.63;27.50;;;2.50;99.90;;;;;;5110648;28;20180;-68
2022/12/08 12:46:58;;;;;;;48.73;29.23;;;2.50;99.90;;;;;;5110570;28;20203;-68
2022/12/08 12:49:39;;;;;;;45.03;27.90;;;2.50;99.90;;;;;;5110886;28;20156;-68
2022/12/08 12:52:17;;;;;;;52.60;28.90;;;2.60;99.90;;;;;;5110590;28;20195;-68
2022/12/08 12:54:49;;;;;;;51.07;30.50;;;2.50;99.90;;;;;;5109423;28;20172;-68
2022/12/08 12:57:18;;;;;;;56.47;30.23;;;2.60;99.90;;;;;;5110581;28;20729;-68
2022/12/08 12:59:53;;;;;;;46.73;29.83;;;2.60;99.90;;;;;;5110428;28;20204;-67